createdAt,value
2023-06-19T00:00:16.800Z,100.00
2023-06-19T00:02:45.535Z,100.00
2023-06-19T00:05:14.573Z,100.00
2023-06-19T00:07:42.262Z,100.00
2023-06-19T00:10:11.406Z,100.00
2023-06-19T00:12:39.041Z,100.00
2023-06-19T00:15:08.563Z,100.00
2023-06-19T00:17:38.691Z,100.00
2023-06-19T00:20:07.803Z,100.00
2023-06-19T00:22:35.561Z,100.00
2023-06-19T00:25:03.411Z,100.00
2023-06-19T00:27:32.506Z,100.00
2023-06-19T00:30:03.413Z,100.00
2023-06-19T00:32:31.724Z,100.00
2023-06-19T00:35:02.000Z,100.00
2023-06-19T00:37:33.159Z,100.00
2023-06-19T00:40:00.885Z,100.00
2023-06-19T00:42:28.525Z,100.00
2023-06-19T00:44:57.777Z,100.00
2023-06-19T00:47:26.778Z,100.00
2023-06-19T00:49:54.826Z,100.00
2023-06-19T00:52:22.483Z,100.00
2023-06-19T00:54:50.247Z,100.00
2023-06-19T00:57:18.073Z,100.00
2023-06-19T00:59:45.847Z,100.00
2023-06-19T01:02:15.192Z,100.00
2023-06-19T01:04:42.923Z,100.00
2023-06-19T01:07:14.763Z,100.00
2023-06-19T01:09:48.768Z,100.00
2023-06-19T01:12:20.352Z,100.00
2023-06-19T01:14:55.172Z,100.00
2023-06-19T01:17:24.782Z,100.00
2023-06-19T01:19:52.696Z,100.00
2023-06-19T01:22:31.589Z,100.00
2023-06-19T01:24:59.566Z,100.00
2023-06-19T01:27:31.017Z,100.00
2023-06-19T01:30:00.229Z,100.00
2023-06-19T01:32:33.675Z,100.00
2023-06-19T01:35:03.242Z,100.00
2023-06-19T01:37:34.465Z,100.00
2023-06-19T01:40:06.935Z,100.00
2023-06-19T01:42:36.233Z,100.00
2023-06-19T01:45:04.843Z,100.00
2023-06-19T01:47:32.743Z,100.00
2023-06-19T01:50:00.501Z,100.00
2023-06-19T01:52:28.538Z,100.00
2023-06-19T01:54:57.856Z,100.00
2023-06-19T01:57:25.804Z,100.00
2023-06-19T01:59:53.454Z,100.00
2023-06-19T02:02:21.132Z,100.00
2023-06-19T02:04:48.887Z,100.00
2023-06-19T02:07:16.653Z,100.00
2023-06-19T02:09:44.322Z,100.00
2023-06-19T02:12:13.468Z,100.00
2023-06-19T02:14:41.147Z,100.00
2023-06-19T02:17:08.807Z,100.00
2023-06-19T02:19:36.682Z,100.00
2023-06-19T02:22:04.634Z,100.00
2023-06-19T02:24:32.357Z,100.00
2023-06-19T02:27:00.084Z,100.00
2023-06-19T02:29:30.601Z,100.00
2023-06-19T02:31:58.271Z,100.00
2023-06-19T02:34:26.414Z,100.00
2023-06-19T02:36:54.340Z,100.00
2023-06-19T02:39:22.949Z,100.00
2023-06-19T02:41:50.641Z,100.00
2023-06-19T02:44:18.267Z,100.00
2023-06-19T02:46:47.394Z,100.00
2023-06-19T02:49:15.160Z,100.00
2023-06-19T02:51:42.840Z,100.00
2023-06-19T02:54:10.589Z,100.00
2023-06-19T02:56:38.250Z,100.00
2023-06-19T02:59:06.055Z,100.00
2023-06-19T03:01:35.216Z,100.00
2023-06-19T03:04:04.475Z,100.00
2023-06-19T03:06:34.412Z,100.00
2023-06-19T03:09:02.037Z,100.00
2023-06-19T03:11:29.737Z,100.00
2023-06-19T03:13:58.559Z,100.00
2023-06-19T03:16:26.233Z,100.00
2023-06-19T03:18:53.909Z,100.00
2023-06-19T03:21:23.171Z,100.00
2023-06-19T03:23:51.277Z,100.00
2023-06-19T03:26:20.763Z,100.00
2023-06-19T03:28:48.694Z,100.00
2023-06-19T03:31:17.602Z,100.00
2023-06-19T03:33:45.364Z,100.00
2023-06-19T03:36:13.073Z,100.00
2023-06-19T03:38:42.194Z,100.00
2023-06-19T03:41:09.965Z,100.00
2023-06-19T03:43:37.644Z,100.00
2023-06-19T03:46:05.412Z,100.00
2023-06-19T03:48:33.115Z,100.00
2023-06-19T03:51:01.861Z,100.00
2023-06-19T03:53:29.709Z,100.00
2023-06-19T03:55:58.848Z,100.00
2023-06-19T03:58:26.630Z,100.00
2023-06-19T04:00:54.347Z,100.00
2023-06-19T04:03:22.185Z,100.00
2023-06-19T04:05:49.954Z,100.00
2023-06-19T04:08:17.858Z,100.00
2023-06-19T04:10:45.714Z,100.00
2023-06-19T04:13:14.831Z,100.00
2023-06-19T04:15:45.464Z,100.00
2023-06-19T04:18:14.229Z,100.00
2023-06-19T04:20:42.196Z,100.00
2023-06-19T04:23:09.885Z,100.00
2023-06-19T04:25:37.658Z,100.00
2023-06-19T04:28:05.730Z,100.00
2023-06-19T04:30:34.740Z,100.00
2023-06-19T04:33:02.644Z,100.00
2023-06-19T04:35:30.322Z,100.00
2023-06-19T04:38:02.176Z,100.00
2023-06-19T04:40:29.828Z,100.00
2023-06-19T04:42:57.497Z,100.00
2023-06-19T04:45:25.203Z,100.00
2023-06-19T04:47:54.605Z,100.00
2023-06-19T04:50:23.068Z,100.00
2023-06-19T04:52:51.833Z,100.00
2023-06-19T04:55:20.661Z,100.00
2023-06-19T04:57:48.525Z,100.00
2023-06-19T05:00:20.107Z,100.00
2023-06-19T05:02:48.580Z,100.00
2023-06-19T05:05:18.800Z,100.00
2023-06-19T05:07:47.836Z,100.00
2023-06-19T05:10:15.628Z,100.00
2023-06-19T05:12:43.325Z,100.00
2023-06-19T05:15:12.170Z,100.00
2023-06-19T05:17:40.385Z,100.00
2023-06-19T05:20:09.408Z,100.00
2023-06-19T05:22:39.038Z,100.00
2023-06-19T05:25:07.728Z,100.00
2023-06-19T05:27:35.409Z,100.00
2023-06-19T05:30:03.384Z,100.00
2023-06-19T05:32:31.113Z,100.00
2023-06-19T05:34:58.940Z,100.00
2023-06-19T05:37:28.187Z,100.00
2023-06-19T05:39:58.217Z,100.00
2023-06-19T05:42:25.856Z,100.00
2023-06-19T05:44:53.518Z,100.00
2023-06-19T05:47:21.885Z,100.00
2023-06-19T05:49:50.812Z,100.00
2023-06-19T05:52:18.882Z,100.00
2023-06-19T05:54:46.556Z,100.00
2023-06-19T05:57:17.179Z,100.00
2023-06-19T05:59:44.871Z,100.00
2023-06-19T06:02:12.704Z,100.00
2023-06-19T06:04:40.626Z,100.00
2023-06-19T06:07:09.085Z,100.00
2023-06-19T06:09:36.895Z,100.00
2023-06-19T06:12:05.124Z,100.00
2023-06-19T06:14:34.125Z,100.00
2023-06-19T06:17:01.888Z,100.00
2023-06-19T06:19:31.601Z,100.00
2023-06-19T06:22:00.756Z,100.00
2023-06-19T06:24:28.514Z,100.00
2023-06-19T06:26:56.405Z,100.00
2023-06-19T06:29:24.056Z,100.00
2023-06-19T06:31:53.825Z,100.00
2023-06-19T06:34:21.560Z,100.00
2023-06-19T06:37:00.819Z,100.00
2023-06-19T06:39:32.826Z,100.00
2023-06-19T06:42:00.486Z,100.00
2023-06-19T06:44:28.660Z,100.00
2023-06-19T06:46:57.705Z,100.00
2023-06-19T06:49:25.338Z,100.00
2023-06-19T06:51:54.872Z,100.00
2023-06-19T06:54:23.862Z,100.00
2023-06-19T06:56:53.738Z,100.00
2023-06-19T06:59:21.537Z,100.00
2023-06-19T07:01:49.157Z,100.00
2023-06-19T07:04:18.167Z,100.00
2023-06-19T07:06:45.957Z,100.00
2023-06-19T07:09:14.074Z,100.00
2023-06-19T07:11:41.859Z,100.00
2023-06-19T07:14:09.514Z,100.00
2023-06-19T07:16:37.226Z,100.00
2023-06-19T07:19:05.052Z,100.00
2023-06-19T07:21:34.951Z,100.00
2023-06-19T07:24:03.106Z,100.00
2023-06-19T07:26:30.788Z,100.00
2023-06-19T07:28:58.605Z,100.00
2023-06-19T07:31:26.319Z,100.00
2023-06-19T07:33:54.070Z,100.00
2023-06-19T07:36:21.765Z,100.00
2023-06-19T07:38:51.021Z,100.00
2023-06-19T07:41:18.816Z,100.00
2023-06-19T07:43:46.488Z,100.00
2023-06-19T07:46:14.277Z,100.00
2023-06-19T07:48:41.960Z,100.00
2023-06-19T07:51:09.644Z,100.00
2023-06-19T07:53:37.311Z,100.00
2023-06-19T07:56:06.457Z,100.00
2023-06-19T07:58:34.178Z,100.00
2023-06-19T08:01:01.859Z,100.00
2023-06-19T08:03:29.894Z,100.00
2023-06-19T08:05:57.821Z,100.00
2023-06-19T08:08:25.730Z,100.00
2023-06-19T08:10:53.681Z,100.00
2023-06-19T08:13:22.720Z,100.00
2023-06-19T08:15:50.549Z,100.00
2023-06-19T08:18:18.546Z,100.00
2023-06-19T08:20:46.263Z,100.00
2023-06-19T08:23:13.914Z,100.00
2023-06-19T08:25:41.585Z,100.00
2023-06-19T08:28:10.148Z,100.00
2023-06-19T08:30:39.329Z,100.00
2023-06-19T08:33:07.052Z,100.00
2023-06-19T08:35:34.786Z,100.00
2023-06-19T08:38:02.425Z,100.00
2023-06-19T08:40:30.105Z,100.00
2023-06-19T08:42:58.019Z,100.00
2023-06-19T08:45:27.830Z,100.00
2023-06-19T08:48:01.879Z,100.00
2023-06-19T08:50:29.542Z,100.00
2023-06-19T08:52:57.232Z,100.00
2023-06-19T08:55:24.977Z,100.00
2023-06-19T08:57:53.854Z,100.00
2023-06-19T09:00:26.814Z,100.00
2023-06-19T09:03:13.521Z,100.00
2023-06-19T09:05:50.832Z,100.00
2023-06-19T09:08:19.787Z,100.00
2023-06-19T09:11:00.091Z,100.00
2023-06-19T09:13:29.795Z,100.00
2023-06-19T09:16:02.931Z,100.00
2023-06-19T09:18:33.975Z,100.00
2023-06-19T09:21:01.720Z,100.00
2023-06-19T09:23:29.588Z,97.41
2023-06-19T09:25:59.922Z,91.39
2023-06-19T09:28:29.410Z,94.17
2023-06-19T09:30:59.770Z,88.26
2023-06-19T09:33:28.544Z,88.09
2023-06-19T09:35:58.730Z,85.41
2023-06-19T09:38:29.568Z,86.00
2023-06-19T09:41:00.397Z,85.30
2023-06-19T09:43:35.263Z,86.38
2023-06-19T09:46:05.013Z,83.26
2023-06-19T09:48:35.812Z,78.91
2023-06-19T09:51:14.190Z,72.62
2023-06-19T09:53:42.453Z,71.42
2023-06-19T09:56:11.102Z,73.05
2023-06-19T09:58:39.663Z,70.20
2023-06-19T10:01:08.616Z,65.69
2023-06-19T10:03:37.802Z,68.29
2023-06-19T10:06:07.464Z,65.96
2023-06-19T10:08:42.068Z,66.14
2023-06-19T10:11:09.899Z,64.66
2023-06-19T10:13:39.964Z,64.36
2023-06-19T10:16:08.207Z,65.87
2023-06-19T10:18:47.137Z,62.91
2023-06-19T10:21:19.435Z,62.58
2023-06-19T10:23:55.964Z,63.67
2023-06-19T10:26:32.292Z,59.61
2023-06-19T10:29:00.052Z,62.12
2023-06-19T10:31:29.833Z,59.38
2023-06-19T10:33:57.837Z,61.02
2023-06-19T10:36:27.573Z,56.64
2023-06-19T10:38:56.371Z,56.33
2023-06-19T10:41:26.074Z,61.21
2023-06-19T10:43:58.521Z,59.09
2023-06-19T10:46:31.223Z,62.22
2023-06-19T10:49:02.523Z,60.74
2023-06-19T10:51:32.498Z,60.50
2023-06-19T10:54:00.380Z,61.32
2023-06-19T10:56:28.376Z,59.60
2023-06-19T10:59:00.292Z,57.97
2023-06-19T11:01:35.171Z,59.34
2023-06-19T11:04:04.700Z,57.99
2023-06-19T11:06:36.565Z,59.16
2023-06-19T11:09:06.173Z,59.21
2023-06-19T11:11:38.329Z,59.75
2023-06-19T11:14:06.441Z,57.80
2023-06-19T11:16:34.762Z,57.94
2023-06-19T11:19:03.149Z,58.73
2023-06-19T11:21:39.496Z,57.11
2023-06-19T11:24:12.347Z,58.35
2023-06-19T11:26:40.879Z,58.28
2023-06-19T11:29:19.419Z,59.21
2023-06-19T11:31:48.503Z,59.76
2023-06-19T11:34:16.672Z,59.26
2023-06-19T11:36:46.887Z,59.78
2023-06-19T11:39:17.139Z,59.49
2023-06-19T11:41:46.291Z,59.14
2023-06-19T11:44:13.968Z,56.87
2023-06-19T11:46:42.034Z,58.82
2023-06-19T11:49:11.210Z,57.22
2023-06-19T11:51:39.006Z,57.30
2023-06-19T11:54:10.533Z,54.97
2023-06-19T11:56:38.727Z,56.16
2023-06-19T11:59:06.795Z,55.36
2023-06-19T12:01:35.744Z,54.78
2023-06-19T12:04:04.219Z,52.99
2023-06-19T12:06:32.498Z,53.67
2023-06-19T12:09:00.867Z,53.15
2023-06-19T12:11:29.851Z,52.23
2023-06-19T12:13:58.849Z,52.69
2023-06-19T12:16:26.984Z,52.24
2023-06-19T12:18:55.446Z,52.29
2023-06-19T12:21:34.908Z,51.84
2023-06-19T12:24:06.431Z,52.15
2023-06-19T12:26:37.703Z,52.63
2023-06-19T12:29:05.925Z,52.35
2023-06-19T12:31:34.882Z,52.59
2023-06-19T12:34:08.130Z,52.98
2023-06-19T12:36:48.940Z,53.05
2023-06-19T12:39:17.926Z,54.73
2023-06-19T12:41:46.988Z,56.03
2023-06-19T12:44:14.749Z,58.50
2023-06-19T12:46:43.475Z,59.55
2023-06-19T12:49:11.399Z,59.27
2023-06-19T12:51:39.141Z,58.14
2023-06-19T12:54:06.885Z,59.43
2023-06-19T12:56:34.736Z,58.83
2023-06-19T12:59:03.790Z,58.28
2023-06-19T13:01:31.576Z,58.25
2023-06-19T13:03:59.398Z,59.58
2023-06-19T13:06:27.128Z,60.91
2023-06-19T13:08:55.213Z,62.24
2023-06-19T13:11:22.922Z,68.42
2023-06-19T13:13:50.669Z,72.20
2023-06-19T13:16:27.137Z,85.44
2023-06-19T13:19:07.892Z,93.18
2023-06-19T13:21:36.944Z,96.90
2023-06-19T13:24:05.151Z,96.71
2023-06-19T13:26:32.877Z,97.98
2023-06-19T13:29:01.833Z,99.83
2023-06-19T13:31:30.957Z,100.00
2023-06-19T13:33:59.653Z,100.00
2023-06-19T13:36:27.975Z,100.00
2023-06-19T13:38:56.069Z,100.00
2023-06-19T13:41:24.834Z,100.00
2023-06-19T13:43:55.012Z,100.00
2023-06-19T13:46:23.700Z,100.00
2023-06-19T13:48:53.430Z,100.00
2023-06-19T13:51:21.674Z,100.00
2023-06-19T13:53:49.929Z,100.00
2023-06-19T13:56:17.942Z,100.00
2023-06-19T13:58:46.083Z,100.00
2023-06-19T14:01:13.889Z,100.00
2023-06-19T14:03:41.746Z,100.00
2023-06-19T14:06:11.014Z,100.00
2023-06-19T14:08:40.721Z,100.00
2023-06-19T14:11:08.721Z,100.00
2023-06-19T14:13:36.501Z,100.00
2023-06-19T14:16:04.439Z,100.00
2023-06-19T14:18:32.129Z,100.00
2023-06-19T14:20:59.832Z,100.00
2023-06-19T14:23:28.910Z,100.00
2023-06-19T14:25:56.607Z,100.00
2023-06-19T14:28:24.302Z,100.00
2023-06-19T14:30:51.933Z,100.00
2023-06-19T14:33:19.588Z,100.00
2023-06-19T14:35:47.429Z,100.00
2023-06-19T14:38:15.593Z,100.00
2023-06-19T14:40:45.838Z,98.80
2023-06-19T14:43:13.519Z,96.42
2023-06-19T14:45:42.223Z,95.95
2023-06-19T14:48:09.964Z,96.21
2023-06-19T14:50:38.648Z,94.44
2023-06-19T14:53:06.390Z,96.52
2023-06-19T14:55:34.187Z,99.05
2023-06-19T14:58:03.370Z,99.19
2023-06-19T15:00:31.054Z,100.00
2023-06-19T15:02:58.886Z,100.00
2023-06-19T15:05:26.620Z,100.00
2023-06-19T15:07:54.249Z,100.00
2023-06-19T15:10:22.173Z,100.00
2023-06-19T15:12:50.197Z,100.00
2023-06-19T15:15:19.260Z,98.82
2023-06-19T15:17:47.066Z,98.28
2023-06-19T15:20:17.548Z,95.61
2023-06-19T15:22:45.357Z,93.54
2023-06-19T15:25:13.154Z,97.34
2023-06-19T15:27:40.916Z,97.96
2023-06-19T15:30:09.685Z,95.59
2023-06-19T15:32:38.705Z,95.13
2023-06-19T15:35:07.434Z,93.81
2023-06-19T15:37:35.168Z,95.40
2023-06-19T15:40:03.400Z,93.91
2023-06-19T15:42:32.372Z,95.19
2023-06-19T15:45:00.436Z,94.65
2023-06-19T15:47:28.208Z,94.51
2023-06-19T15:49:57.264Z,91.60
2023-06-19T15:52:25.090Z,88.94
2023-06-19T15:54:52.999Z,86.18
2023-06-19T15:57:20.765Z,85.28
2023-06-19T15:59:52.729Z,86.29
2023-06-19T16:02:20.817Z,89.41
2023-06-19T16:04:48.620Z,92.21
2023-06-19T16:07:17.621Z,96.96
2023-06-19T16:12:16.093Z,100.00
2023-06-19T16:14:43.801Z,99.10
2023-06-19T16:17:12.236Z,100.00
2023-06-19T16:19:40.000Z,96.63
2023-06-19T16:22:07.761Z,95.15
2023-06-19T16:24:36.797Z,90.62
2023-06-19T16:27:04.748Z,91.15
2023-06-19T16:29:32.570Z,93.91
2023-06-19T16:32:08.778Z,95.51
2023-06-19T16:34:37.172Z,94.68
2023-06-19T16:37:05.194Z,94.58
2023-06-19T16:39:33.342Z,93.05
2023-06-19T16:42:03.015Z,92.79
2023-06-19T16:44:30.840Z,95.82
2023-06-19T16:46:58.557Z,96.28
2023-06-19T16:49:26.330Z,100.00
2023-06-19T16:51:54.048Z,100.00
2023-06-19T16:54:21.861Z,100.00
2023-06-19T16:56:49.566Z,100.00
2023-06-19T16:59:18.907Z,100.00
2023-06-19T17:01:47.991Z,100.00
2023-06-19T17:04:15.814Z,100.00
2023-06-19T17:06:43.580Z,100.00
2023-06-19T17:09:11.293Z,100.00
2023-06-19T17:11:42.499Z,100.00
2023-06-19T17:14:10.776Z,100.00
2023-06-19T17:16:39.958Z,100.00
2023-06-19T17:19:07.725Z,100.00
2023-06-19T17:21:35.674Z,100.00
2023-06-19T17:24:03.501Z,100.00
2023-06-19T17:26:31.277Z,100.00
2023-06-19T17:28:59.165Z,100.00
2023-06-19T17:31:26.849Z,100.00
2023-06-19T17:33:55.943Z,100.00
2023-06-19T17:36:23.644Z,100.00
2023-06-19T17:38:51.402Z,100.00
2023-06-19T17:41:19.116Z,100.00
2023-06-19T17:43:46.842Z,100.00
2023-06-19T17:46:14.529Z,100.00
2023-06-19T17:48:43.204Z,100.00
2023-06-19T17:51:12.424Z,100.00
2023-06-19T17:53:40.863Z,100.00
2023-06-19T17:56:08.578Z,100.00
2023-06-19T17:58:36.613Z,100.00
2023-06-19T18:01:04.302Z,100.00
2023-06-19T18:03:32.737Z,100.00
2023-06-19T18:06:00.610Z,100.00
2023-06-19T18:08:29.604Z,100.00
2023-06-19T18:10:58.845Z,100.00
2023-06-19T18:13:26.724Z,100.00
2023-06-19T18:16:10.719Z,100.00
2023-06-19T18:18:40.051Z,100.00
2023-06-19T18:21:07.825Z,100.00
2023-06-19T18:23:36.943Z,100.00
2023-06-19T18:26:04.616Z,100.00
2023-06-19T18:28:32.453Z,100.00
2023-06-19T18:31:00.330Z,100.00
2023-06-19T18:33:28.005Z,100.00
2023-06-19T18:35:55.735Z,100.00
2023-06-19T18:38:23.483Z,100.00
2023-06-19T18:40:52.681Z,100.00
2023-06-19T18:43:20.371Z,100.00
2023-06-19T18:45:48.299Z,100.00
2023-06-19T18:48:16.136Z,100.00
2023-06-19T18:50:43.905Z,100.00
2023-06-19T18:53:12.391Z,100.00
2023-06-19T18:55:41.317Z,100.00
2023-06-19T18:58:12.323Z,100.00
2023-06-19T19:00:40.169Z,100.00
2023-06-19T19:03:08.748Z,100.00
2023-06-19T19:05:37.070Z,100.00
2023-06-19T19:08:05.192Z,100.00
2023-06-19T19:10:32.875Z,100.00
2023-06-19T19:13:00.966Z,100.00
2023-06-19T19:15:29.984Z,100.00
2023-06-19T19:17:57.950Z,100.00
2023-06-19T19:20:26.283Z,100.00
2023-06-19T19:22:54.197Z,100.00
2023-06-19T19:25:21.888Z,100.00
2023-06-19T19:27:49.553Z,100.00
2023-06-19T19:30:17.364Z,100.00
2023-06-19T19:32:46.607Z,100.00
2023-06-19T19:35:14.293Z,100.00
2023-06-19T19:37:42.005Z,100.00
2023-06-19T19:40:11.032Z,100.00
2023-06-19T19:42:38.720Z,100.00
2023-06-19T19:45:07.255Z,100.00
2023-06-19T19:47:36.182Z,100.00
2023-06-19T19:50:05.815Z,100.00
2023-06-19T19:52:33.490Z,100.00
2023-06-19T19:55:01.223Z,100.00
2023-06-19T19:57:28.832Z,100.00
2023-06-19T19:59:56.477Z,100.00
2023-06-19T20:02:24.237Z,100.00
2023-06-19T20:04:53.249Z,100.00
2023-06-19T20:07:22.333Z,100.00
2023-06-19T20:09:50.005Z,100.00
2023-06-19T20:12:21.834Z,100.00
2023-06-19T20:14:50.085Z,100.00
2023-06-19T20:17:17.779Z,100.00
2023-06-19T20:19:45.720Z,100.00
2023-06-19T20:22:13.522Z,100.00
2023-06-19T20:24:42.590Z,100.00
2023-06-19T20:27:11.237Z,100.00
2023-06-19T20:29:38.959Z,100.00
2023-06-19T20:32:07.667Z,100.00
2023-06-19T20:34:35.347Z,100.00
2023-06-19T20:37:03.893Z,100.00
2023-06-19T20:39:32.038Z,100.00
2023-06-19T20:42:03.521Z,100.00
2023-06-19T20:44:31.577Z,100.00
2023-06-19T20:47:01.636Z,100.00
2023-06-19T20:49:29.549Z,100.00
2023-06-19T20:51:57.319Z,100.00
2023-06-19T20:54:24.987Z,100.00
2023-06-19T20:56:52.659Z,100.00
2023-06-19T20:59:21.991Z,100.00
2023-06-19T21:01:49.735Z,100.00
2023-06-19T21:04:17.670Z,100.00
2023-06-19T21:06:46.074Z,100.00
2023-06-19T21:09:15.364Z,100.00
2023-06-19T21:11:44.619Z,100.00
2023-06-19T21:14:12.625Z,100.00
2023-06-19T21:16:41.740Z,100.00
2023-06-19T21:19:09.547Z,100.00
2023-06-19T21:21:37.161Z,100.00
2023-06-19T21:24:05.322Z,100.00
2023-06-19T21:26:32.999Z,100.00
2023-06-19T21:29:00.720Z,100.00
2023-06-19T21:31:28.340Z,100.00
2023-06-19T21:33:57.841Z,100.00
2023-06-19T21:36:25.482Z,100.00
2023-06-19T21:38:53.156Z,100.00
2023-06-19T21:41:21.044Z,100.00
2023-06-19T21:43:49.032Z,100.00
2023-06-19T21:46:16.828Z,100.00
2023-06-19T21:48:44.546Z,100.00
2023-06-19T21:51:13.616Z,100.00
2023-06-19T21:53:41.307Z,100.00
2023-06-19T21:56:08.970Z,100.00
2023-06-19T21:58:36.706Z,100.00
2023-06-19T22:01:04.491Z,100.00
2023-06-19T22:03:32.206Z,100.00
2023-06-19T22:06:00.625Z,100.00
2023-06-19T22:08:41.516Z,100.00
2023-06-19T22:11:10.272Z,100.00
2023-06-19T22:13:37.979Z,100.00
2023-06-19T22:16:05.998Z,100.00
2023-06-19T22:18:33.714Z,100.00
2023-06-19T22:21:02.629Z,100.00
2023-06-19T22:23:31.965Z,100.00
2023-06-19T22:26:00.032Z,100.00
2023-06-19T22:28:27.743Z,100.00
2023-06-19T22:30:55.531Z,100.00
2023-06-19T22:33:23.282Z,100.00
2023-06-19T22:35:50.923Z,100.00
2023-06-19T22:38:18.610Z,100.00
2023-06-19T22:40:47.715Z,100.00
2023-06-19T22:43:15.500Z,100.00
2023-06-19T22:45:43.380Z,100.00
2023-06-19T22:48:11.175Z,100.00
2023-06-19T22:50:39.023Z,100.00
2023-06-19T22:53:06.785Z,100.00
2023-06-19T22:55:34.432Z,100.00
2023-06-19T22:58:03.840Z,100.00
2023-06-19T23:00:31.504Z,100.00
2023-06-19T23:02:59.354Z,100.00
2023-06-19T23:05:27.596Z,100.00
2023-06-19T23:07:56.647Z,100.00
2023-06-19T23:10:24.277Z,100.00
2023-06-19T23:12:51.982Z,100.00
2023-06-19T23:15:21.215Z,100.00
2023-06-19T23:17:49.171Z,100.00
2023-06-19T23:20:18.570Z,100.00
2023-06-19T23:22:48.789Z,100.00
2023-06-19T23:25:16.744Z,100.00
2023-06-19T23:27:44.448Z,100.00
2023-06-19T23:30:12.771Z,100.00
2023-06-19T23:32:41.902Z,100.00
2023-06-19T23:35:10.410Z,100.00
2023-06-19T23:37:38.179Z,100.00
2023-06-19T23:40:08.859Z,100.00
2023-06-19T23:42:36.820Z,100.00
2023-06-19T23:45:04.918Z,100.00
2023-06-19T23:47:32.693Z,100.00
2023-06-19T23:50:01.859Z,100.00
2023-06-19T23:52:42.134Z,100.00
2023-06-19T23:55:11.225Z,100.00
2023-06-19T23:57:38.891Z,100.00
